Time;durP1;ratioP1;P1;durP2;ratioP2;P2;SDS_P1;SDS_P2;PMS_P1;PMS_P2;Temp;Humidity;BMP_temperature;BMP_pressure;BME280_temperature;BME280_humidity;BME280_pressure;Samples;Min_cycle;Max_cycle;Signal;HPM_P1;HPM_P2
2021/08/12 00:00:22;;;;;;;13.73;8.88;;;16.60;99.90;;;;;;5072509;28;20471;-77
2021/08/12 00:02:48;;;;;;;11.23;9.18;;;16.70;99.90;;;;;;5074770;28;20492;-75
2021/08/12 00:05:14;;;;;;;13.00;9.25;;;16.60;99.90;;;;;;5081953;28;20556;-76
2021/08/12 00:07:40;;;;;;;14.93;9.77;;;16.70;99.90;;;;;;5083952;28;20017;-74
2021/08/12 00:10:06;;;;;;;12.82;8.95;;;16.60;99.90;;;;;;5082961;28;20120;-75
2021/08/12 00:12:31;;;;;;;16.02;9.85;;;16.50;99.90;;;;;;5083152;28;20025;-76
2021/08/12 00:14:57;;;;;;;12.70;9.68;;;16.50;99.90;;;;;;5080186;28;20024;-76
2021/08/12 00:17:23;;;;;;;15.32;10.70;;;16.40;99.90;;;;;;5071747;28;20020;-76
2021/08/12 00:19:48;;;;;;;16.30;10.10;;;16.40;99.90;;;;;;5071036;28;20025;-77
2021/08/12 00:22:14;;;;;;;13.70;9.85;;;16.40;99.90;;;;;;5071878;28;20025;-76
2021/08/12 00:24:40;;;;;;;14.27;9.40;;;16.40;99.90;;;;;;5072098;28;20012;-77
2021/08/12 00:27:06;;;;;;;14.73;9.85;;;16.40;99.90;;;;;;5074314;28;20138;-76
2021/08/12 00:29:32;;;;;;;17.17;9.73;;;16.30;99.90;;;;;;5076668;28;20023;-76
2021/08/12 00:31:57;;;;;;;13.45;10.43;;;16.20;99.90;;;;;;5079438;28;20513;-77
2021/08/12 00:34:24;;;;;;;14.48;10.15;;;16.20;99.90;;;;;;5078458;28;20406;-75
2021/08/12 00:36:49;;;;;;;16.98;10.05;;;16.20;99.90;;;;;;5075089;28;20035;-75
2021/08/12 00:39:16;;;;;;;16.77;10.43;;;16.20;99.90;;;;;;5075487;28;20730;-75
2021/08/12 00:41:43;;;;;;;20.08;10.65;;;16.20;99.90;;;;;;5076122;28;20012;-75
2021/08/12 00:44:08;;;;;;;13.00;10.00;;;16.20;99.90;;;;;;5076029;28;20099;-75
2021/08/12 00:46:34;;;;;;;15.40;10.25;;;16.10;99.90;;;;;;5075632;28;20548;-75
2021/08/12 00:49:00;;;;;;;19.90;11.07;;;16.10;99.90;;;;;;5076339;28;20499;-75
2021/08/12 00:51:28;;;;;;;19.08;11.18;;;16.00;99.90;;;;;;5076524;28;20548;-75
2021/08/12 00:53:53;;;;;;;16.13;10.52;;;16.00;99.90;;;;;;5076318;28;20335;-76
2021/08/12 00:56:19;;;;;;;16.15;11.75;;;15.90;99.90;;;;;;5075760;28;20024;-75
2021/08/12 00:58:45;;;;;;;20.65;10.68;;;15.90;99.90;;;;;;5074397;28;20446;-75
2021/08/12 01:01:10;;;;;;;14.48;10.32;;;15.90;99.90;;;;;;5074525;28;20017;-75
2021/08/12 01:03:36;;;;;;;12.73;9.93;;;15.90;99.90;;;;;;5074631;28;20021;-76
2021/08/12 01:06:02;;;;;;;18.27;11.25;;;15.90;99.90;;;;;;5074282;28;20036;-76
2021/08/12 01:08:57;;;;;;;14.85;10.77;;;15.80;99.90;;;;;;5074753;28;20031;-75
2021/08/12 01:11:43;;;;;;;23.45;11.48;;;15.80;99.90;;;;;;5074944;28;20039;-75
2021/08/12 01:14:34;;;;;;;16.10;11.07;;;15.80;99.90;;;;;;5075626;28;20042;-76
2021/08/12 01:17:05;;;;;;;13.95;11.05;;;15.80;99.90;;;;;;5076030;28;20100;-75
2021/08/12 01:19:50;;;;;;;14.40;11.32;;;15.70;99.90;;;;;;5074536;28;20020;-76
2021/08/12 01:22:19;;;;;;;16.80;10.75;;;15.80;99.90;;;;;;5075916;28;20104;-75
2021/08/12 01:24:49;;;;;;;17.33;10.02;;;15.70;99.90;;;;;;5073802;28;20028;-76
2021/08/12 01:27:17;;;;;;;13.50;9.48;;;15.70;99.90;;;;;;5075756;28;20028;-75
2021/08/12 01:29:46;;;;;;;14.05;9.77;;;15.70;99.90;;;;;;5074293;28;20024;-75
2021/08/12 01:32:18;;;;;;;18.38;10.30;;;15.70;99.90;;;;;;5074548;28;20028;-75
2021/08/12 01:35:01;;;;;;;11.30;10.15;;;15.70;99.90;;;;;;5079199;28;20041;-76
2021/08/12 01:37:34;;;;;;;12.18;9.63;;;15.70;99.90;;;;;;5062637;28;20025;-76
2021/08/12 01:40:03;;;;;;;13.88;9.75;;;15.70;99.90;;;;;;5058054;28;20032;-75
2021/08/12 01:42:30;;;;;;;12.65;9.05;;;15.70;99.90;;;;;;5055631;28;20025;-76
2021/08/12 01:44:58;;;;;;;11.48;8.70;;;15.60;99.90;;;;;;5055897;28;20017;-75
2021/08/12 01:47:24;;;;;;;12.13;9.88;;;15.50;99.90;;;;;;5054461;28;20029;-76
2021/08/12 01:49:51;;;;;;;14.55;9.80;;;15.50;99.90;;;;;;5053796;28;20025;-75
2021/08/12 01:52:18;;;;;;;18.15;9.02;;;15.50;99.90;;;;;;5055721;28;20048;-75
2021/08/12 01:54:44;;;;;;;11.35;9.63;;;15.50;99.90;;;;;;5053405;28;20063;-76
2021/08/12 01:57:11;;;;;;;16.00;9.27;;;15.50;99.90;;;;;;5055997;28;20049;-76
2021/08/12 01:59:38;;;;;;;14.00;9.35;;;15.50;99.90;;;;;;5055396;28;20172;-75
2021/08/12 02:02:06;;;;;;;15.95;10.90;;;15.50;99.90;;;;;;5056150;28;20505;-75
2021/08/12 02:04:34;;;;;;;15.15;11.48;;;15.60;99.90;;;;;;5055509;28;20095;-75
2021/08/12 02:07:04;;;;;;;18.33;12.13;;;15.50;99.90;;;;;;5076285;28;20103;-75
2021/08/12 02:09:30;;;;;;;17.15;11.73;;;15.50;99.90;;;;;;5075125;28;20877;-76
2021/08/12 02:11:55;;;;;;;21.15;12.60;;;15.50;99.90;;;;;;5075031;28;20029;-75
2021/08/12 02:14:21;;;;;;;16.08;12.18;;;15.50;99.90;;;;;;5078349;28;20035;-75
2021/08/12 02:16:47;;;;;;;16.38;12.20;;;15.40;99.90;;;;;;5078480;28;20028;-75
2021/08/12 02:19:13;;;;;;;16.80;12.95;;;15.30;99.90;;;;;;5079128;28;20017;-75
2021/08/12 02:21:45;;;;;;;18.90;13.38;;;15.30;99.90;;;;;;5078084;28;20021;-75
2021/08/12 02:24:40;;;;;;;17.35;12.75;;;15.30;99.90;;;;;;5077570;28;20028;-76
2021/08/12 02:27:11;;;;;;;23.48;13.45;;;15.30;99.90;;;;;;5067421;28;20446;-76
2021/08/12 02:29:37;;;;;;;18.35;12.93;;;15.30;99.90;;;;;;5078488;28;20044;-76
2021/08/12 02:32:06;;;;;;;15.25;12.23;;;15.30;99.90;;;;;;5078999;28;20024;-76
2021/08/12 02:34:33;;;;;;;15.85;12.23;;;15.20;99.90;;;;;;5082145;28;20013;-75
2021/08/12 02:37:05;;;;;;;22.00;11.27;;;15.20;99.90;;;;;;5080464;28;20028;-75
2021/08/12 02:39:33;;;;;;;19.10;11.63;;;15.20;99.90;;;;;;5076162;28;20036;-76
2021/08/12 02:42:02;;;;;;;15.43;10.85;;;15.20;99.90;;;;;;5079190;28;20035;-75
2021/08/12 02:44:29;;;;;;;15.57;12.50;;;15.30;99.90;;;;;;5076913;28;20070;-76
2021/08/12 02:46:56;;;;;;;12.15;10.32;;;15.30;99.90;;;;;;5077049;28;20094;-75
2021/08/12 02:49:23;;;;;;;16.98;11.95;;;15.20;99.90;;;;;;5075648;28;20553;-75
2021/08/12 02:51:51;;;;;;;15.02;12.63;;;15.20;99.90;;;;;;5077615;28;20065;-75
2021/08/12 02:54:18;;;;;;;18.85;12.27;;;15.20;99.90;;;;;;5076898;28;20024;-77
2021/08/12 02:56:44;;;;;;;17.42;12.73;;;15.20;99.90;;;;;;5075142;28;20024;-76
2021/08/12 02:59:11;;;;;;;21.23;12.63;;;15.10;99.90;;;;;;5076828;28;20505;-75
2021/08/12 03:01:39;;;;;;;15.55;11.48;;;15.10;99.90;;;;;;5075356;28;20021;-76
2021/08/12 03:04:06;;;;;;;20.38;12.25;;;15.10;99.90;;;;;;5076381;28;20084;-75
2021/08/12 03:06:33;;;;;;;20.73;12.77;;;15.10;99.90;;;;;;5074970;28;20025;-75
2021/08/12 03:08:59;;;;;;;14.93;12.05;;;15.10;99.90;;;;;;5074763;28;20095;-75
2021/08/12 03:11:25;;;;;;;20.38;13.20;;;15.00;99.90;;;;;;5076942;28;20039;-75
2021/08/12 03:13:54;;;;;;;19.70;13.45;;;15.00;99.90;;;;;;5077099;28;20059;-74
2021/08/12 03:16:21;;;;;;;19.25;12.85;;;15.00;99.90;;;;;;5075897;28;20037;-74
2021/08/12 03:18:47;;;;;;;15.20;12.68;;;15.00;99.90;;;;;;5074974;28;20025;-75
2021/08/12 03:21:14;;;;;;;19.83;14.27;;;14.90;99.90;;;;;;5075234;28;20070;-74
2021/08/12 03:23:41;;;;;;;17.38;12.27;;;14.90;99.90;;;;;;5075599;28;20075;-74
2021/08/12 03:26:07;;;;;;;17.15;13.60;;;15.00;99.90;;;;;;5075023;28;20020;-74
2021/08/12 03:28:33;;;;;;;24.23;13.35;;;14.90;99.90;;;;;;5073356;28;20050;-75
2021/08/12 03:30:59;;;;;;;16.38;13.05;;;14.90;99.90;;;;;;5075148;28;20542;-74
2021/08/12 03:33:26;;;;;;;21.00;13.98;;;14.90;99.90;;;;;;5075527;28;20032;-75
2021/08/12 03:35:52;;;;;;;20.38;13.15;;;14.90;99.90;;;;;;5074037;28;20028;-75
2021/08/12 03:38:20;;;;;;;19.27;13.05;;;14.80;99.90;;;;;;5075281;28;20032;-75
2021/08/12 03:40:46;;;;;;;19.83;13.85;;;14.80;99.90;;;;;;5073810;28;20116;-74
2021/08/12 03:43:11;;;;;;;22.85;13.35;;;14.80;99.90;;;;;;5074564;28;20498;-74
2021/08/12 03:45:37;;;;;;;18.65;13.32;;;14.80;99.90;;;;;;5073904;28;20360;-74
2021/08/12 03:48:03;;;;;;;17.98;12.45;;;14.80;99.90;;;;;;5074314;28;20032;-74
2021/08/12 03:50:28;;;;;;;16.30;12.23;;;14.80;99.90;;;;;;5072947;28;20025;-74
2021/08/12 03:52:54;;;;;;;12.82;10.93;;;14.80;99.90;;;;;;5074237;28;20513;-74
2021/08/12 03:55:20;;;;;;;17.98;10.85;;;14.80;99.90;;;;;;5071478;28;20028;-74
2021/08/12 03:57:46;;;;;;;16.05;11.02;;;14.70;99.90;;;;;;5071088;28;20020;-76
2021/08/12 04:00:14;;;;;;;15.98;12.00;;;14.80;99.90;;;;;;5073440;28;20527;-74
2021/08/12 04:02:39;;;;;;;19.55;12.40;;;14.80;99.90;;;;;;5072566;28;20042;-75
2021/08/12 04:05:06;;;;;;;17.80;12.13;;;14.80;99.90;;;;;;5074689;28;20838;-75
2021/08/12 04:07:32;;;;;;;18.92;12.35;;;14.70;99.90;;;;;;5078001;28;20486;-75
2021/08/12 04:09:57;;;;;;;18.02;12.75;;;14.70;99.90;;;;;;5081553;28;20025;-75
2021/08/12 04:12:23;;;;;;;15.57;12.20;;;14.70;99.90;;;;;;5082972;28;20016;-75
2021/08/12 04:14:49;;;;;;;18.30;12.88;;;14.70;99.90;;;;;;5083341;28;20047;-75
2021/08/12 04:17:15;;;;;;;19.27;13.73;;;14.60;99.90;;;;;;5092395;28;20047;-75
2021/08/12 04:19:41;;;;;;;17.48;13.57;;;14.60;99.90;;;;;;5090462;28;20025;-74
2021/08/12 04:22:07;;;;;;;17.75;12.45;;;14.60;99.90;;;;;;5079752;28;20021;-75
2021/08/12 04:24:33;;;;;;;15.35;11.68;;;14.70;99.90;;;;;;5079314;28;20020;-76
2021/08/12 04:26:59;;;;;;;19.15;12.38;;;14.60;99.90;;;;;;5075796;28;20031;-74
2021/08/12 04:29:25;;;;;;;16.60;11.32;;;14.60;99.90;;;;;;5080281;28;20025;-74
2021/08/12 04:31:50;;;;;;;12.52;9.82;;;14.60;99.90;;;;;;5076520;28;20096;-73
2021/08/12 04:34:16;;;;;;;17.10;10.27;;;14.60;99.90;;;;;;5076383;28;20020;-73
2021/08/12 04:36:42;;;;;;;14.05;9.90;;;14.60;99.90;;;;;;5076678;28;20081;-72
2021/08/12 04:39:09;;;;;;;10.38;9.30;;;14.60;99.90;;;;;;5077345;28;20406;-71
2021/08/12 04:41:34;;;;;;;15.85;10.25;;;14.70;99.90;;;;;;5075874;28;20470;-72
2021/08/12 04:44:00;;;;;;;16.88;10.40;;;14.80;99.90;;;;;;5076019;28;20032;-73
2021/08/12 04:46:26;;;;;;;17.92;10.60;;;14.80;99.90;;;;;;5076014;28;20551;-73
2021/08/12 04:48:52;;;;;;;16.60;11.35;;;14.90;99.90;;;;;;5076423;28;20116;-72
2021/08/12 04:51:17;;;;;;;15.82;11.35;;;14.90;99.90;;;;;;5077001;28;20123;-72
2021/08/12 04:53:43;;;;;;;13.93;11.00;;;14.90;99.90;;;;;;5076414;28;20028;-72
2021/08/12 04:56:09;;;;;;;13.57;10.77;;;15.00;99.90;;;;;;5074970;28;20053;-71
2021/08/12 04:58:34;;;;;;;12.57;10.30;;;15.00;99.90;;;;;;5074346;28;20032;-72
2021/08/12 05:01:00;;;;;;;16.45;11.27;;;14.90;99.90;;;;;;5074085;28;20046;-71
2021/08/12 05:03:26;;;;;;;15.75;10.80;;;15.20;99.90;;;;;;5073908;28;20453;-72
2021/08/12 05:06:05;;;;;;;14.32;10.20;;;15.20;99.90;;;;;;5074316;28;20604;-72
2021/08/12 05:08:30;;;;;;;15.68;10.63;;;15.30;99.90;;;;;;5074531;28;20325;-72
2021/08/12 05:10:56;;;;;;;12.60;9.70;;;15.30;99.90;;;;;;5073722;28;20024;-72
2021/08/12 05:13:22;;;;;;;11.20;9.50;;;15.30;99.90;;;;;;5074080;28;20035;-71
2021/08/12 05:15:48;;;;;;;13.70;9.73;;;15.30;99.90;;;;;;5073208;28;20028;-71
2021/08/12 05:18:14;;;;;;;12.07;10.07;;;15.40;99.90;;;;;;5073510;28;20029;-71
2021/08/12 05:20:40;;;;;;;20.30;10.55;;;15.50;99.90;;;;;;5073652;28;20044;-71
2021/08/12 05:23:05;;;;;;;16.85;10.15;;;15.70;99.90;;;;;;5073701;28;20371;-73
2021/08/12 05:25:31;;;;;;;16.13;10.57;;;15.90;99.90;;;;;;5073014;28;20032;-72
2021/08/12 05:27:57;;;;;;;17.58;11.00;;;16.00;99.90;;;;;;5072875;28;20021;-73
2021/08/12 05:30:23;;;;;;;14.85;10.82;;;16.10;99.90;;;;;;5072354;28;20052;-72
2021/08/12 05:32:49;;;;;;;11.35;10.15;;;16.20;99.90;;;;;;5072094;28;20375;-72
2021/08/12 05:35:15;;;;;;;12.45;9.23;;;16.10;99.90;;;;;;5074828;28;20024;-72
2021/08/12 05:37:41;;;;;;;13.13;9.13;;;16.00;99.90;;;;;;5074178;28;20043;-73
2021/08/12 05:40:07;;;;;;;14.85;9.07;;;16.00;99.90;;;;;;5074320;28;20035;-72
2021/08/12 05:42:33;;;;;;;13.05;8.70;;;15.80;99.90;;;;;;5074200;28;20017;-72
2021/08/12 05:44:59;;;;;;;10.93;8.95;;;15.70;99.90;;;;;;5074090;28;20493;-71
2021/08/12 05:47:24;;;;;;;11.70;8.38;;;15.70;99.90;;;;;;5074232;28;20032;-71
2021/08/12 05:49:50;;;;;;;16.00;8.68;;;15.60;99.90;;;;;;5074524;28;20017;-72
2021/08/12 05:52:16;;;;;;;9.90;7.60;;;15.80;99.90;;;;;;5075122;28;20751;-72
2021/08/12 05:54:41;;;;;;;14.40;8.68;;;15.80;99.90;;;;;;5072791;28;20021;-71
2021/08/12 05:57:07;;;;;;;10.13;8.27;;;15.80;99.90;;;;;;5074338;28;20028;-71
2021/08/12 05:59:33;;;;;;;9.38;8.32;;;15.90;99.90;;;;;;5074145;28;20070;-72
2021/08/12 06:01:58;;;;;;;11.60;9.45;;;16.10;99.90;;;;;;5074475;28;20027;-72
2021/08/12 06:04:24;;;;;;;9.38;8.23;;;16.20;99.90;;;;;;5074813;28;20437;-72
2021/08/12 06:06:50;;;;;;;13.93;8.57;;;16.00;99.90;;;;;;5076225;28;20029;-72
2021/08/12 06:09:15;;;;;;;12.07;8.85;;;16.00;99.90;;;;;;5075778;28;20435;-71
2021/08/12 06:11:41;;;;;;;13.18;8.40;;;16.00;99.90;;;;;;5074971;28;20170;-72
2021/08/12 06:14:07;;;;;;;11.30;8.82;;;16.00;99.90;;;;;;5075414;28;20047;-70
2021/08/12 06:16:33;;;;;;;13.98;9.15;;;16.00;99.90;;;;;;5063401;28;20128;-71
2021/08/12 06:18:58;;;;;;;9.65;8.40;;;16.10;99.90;;;;;;5067257;28;20025;-71
2021/08/12 06:21:24;;;;;;;13.27;9.43;;;16.10;99.90;;;;;;5057690;28;20025;-71
2021/08/12 06:23:51;;;;;;;14.50;9.57;;;16.20;99.90;;;;;;5065904;28;20028;-71
2021/08/12 06:26:17;;;;;;;12.88;8.02;;;16.20;99.90;;;;;;5053072;28;20033;-71
2021/08/12 06:28:46;;;;;;;15.55;8.95;;;16.30;99.90;;;;;;5053781;28;20079;-70
2021/08/12 06:31:12;;;;;;;12.75;9.25;;;16.40;99.90;;;;;;5053650;28;20089;-71
2021/08/12 06:33:38;;;;;;;11.82;9.10;;;16.50;99.90;;;;;;5053144;28;20060;-71
2021/08/12 06:36:04;;;;;;;11.65;8.85;;;16.50;99.90;;;;;;5068309;28;20056;-71
2021/08/12 06:38:30;;;;;;;11.98;9.38;;;16.70;99.90;;;;;;5073976;28;20111;-71
2021/08/12 06:40:55;;;;;;;15.35;9.38;;;16.80;99.90;;;;;;5074924;28;20705;-71
2021/08/12 06:43:21;;;;;;;12.55;8.65;;;16.80;99.90;;;;;;5073727;28;20017;-71
2021/08/12 06:45:47;;;;;;;12.10;8.68;;;16.90;99.90;;;;;;5073828;28;20470;-70
2021/08/12 06:48:12;;;;;;;13.70;8.35;;;17.00;99.90;;;;;;5073966;28;20438;-71
2021/08/12 06:50:38;;;;;;;13.98;9.50;;;17.10;99.90;;;;;;5074920;28;20052;-71
2021/08/12 06:53:04;;;;;;;12.32;9.10;;;17.30;99.90;;;;;;5074054;28;20024;-71
2021/08/12 06:55:30;;;;;;;12.90;9.20;;;17.30;99.90;;;;;;5073305;28;20033;-70
2021/08/12 06:57:56;;;;;;;14.60;9.35;;;17.40;99.90;;;;;;5072286;28;20060;-71
2021/08/12 07:00:22;;;;;;;10.98;8.73;;;17.50;99.90;;;;;;5073736;28;20016;-72
2021/08/12 07:02:48;;;;;;;12.52;8.18;;;17.70;99.90;;;;;;5072637;28;20035;-71
2021/08/12 07:05:14;;;;;;;16.02;9.00;;;17.80;99.90;;;;;;5072672;28;20697;-71
2021/08/12 07:07:39;;;;;;;9.10;7.65;;;17.90;99.90;;;;;;5073711;28;20036;-71
2021/08/12 07:10:06;;;;;;;10.27;7.75;;;18.00;99.90;;;;;;5073218;28;20039;-71
2021/08/12 07:12:32;;;;;;;12.90;7.90;;;18.10;99.90;;;;;;5072716;28;20031;-71
2021/08/12 07:14:58;;;;;;;15.35;7.97;;;18.40;99.90;;;;;;5072682;28;20026;-71
2021/08/12 07:17:25;;;;;;;11.38;7.55;;;18.60;99.90;;;;;;5071764;28;20103;-71
2021/08/12 07:19:51;;;;;;;9.95;7.70;;;18.80;99.90;;;;;;5069847;28;20019;-71
2021/08/12 07:22:18;;;;;;;14.35;8.07;;;19.00;99.90;;;;;;5071635;28;20111;-71
2021/08/12 07:24:44;;;;;;;12.05;7.93;;;19.20;99.90;;;;;;5072145;28;20020;-72
2021/08/12 07:27:10;;;;;;;11.23;8.10;;;19.40;99.90;;;;;;5071755;28;20036;-71
2021/08/12 07:29:35;;;;;;;15.18;7.50;;;19.50;99.90;;;;;;5073543;28;20054;-71
2021/08/12 07:32:03;;;;;;;10.32;7.72;;;19.60;99.90;;;;;;5073175;28;20036;-72
2021/08/12 07:34:28;;;;;;;9.90;7.30;;;19.60;99.90;;;;;;5072406;28;20021;-73
2021/08/12 07:36:54;;;;;;;8.80;6.95;;;19.70;99.90;;;;;;5073128;28;20028;-72
2021/08/12 07:39:20;;;;;;;10.23;6.43;;;19.70;99.90;;;;;;5071747;28;20033;-72
2021/08/12 07:41:45;;;;;;;14.80;7.78;;;19.70;99.90;;;;;;5072632;28;20091;-72
2021/08/12 07:44:13;;;;;;;9.60;7.53;;;19.80;99.90;;;;;;5072867;28;20382;-72
2021/08/12 07:46:39;;;;;;;13.80;8.18;;;19.80;99.90;;;;;;5073834;28;20017;-71
2021/08/12 07:49:04;;;;;;;14.52;8.05;;;19.90;99.90;;;;;;5076931;28;20112;-73
2021/08/12 07:51:30;;;;;;;12.02;7.53;;;20.10;99.90;;;;;;5080105;28;20036;-72
2021/08/12 07:53:56;;;;;;;10.00;7.35;;;20.30;99.90;;;;;;5077591;28;20032;-72
2021/08/12 07:56:21;;;;;;;10.05;7.80;;;20.50;99.90;;;;;;5072764;28;20025;-72
2021/08/12 07:58:48;;;;;;;7.55;6.85;;;20.80;99.90;;;;;;5072482;28;20070;-71
2021/08/12 08:01:18;;;;;;;12.75;7.30;;;21.00;99.90;;;;;;5075130;28;20020;-72
2021/08/12 08:03:45;;;;;;;11.25;7.10;;;21.10;99.90;;;;;;5076846;28;20051;-72
2021/08/12 08:06:12;;;;;;;8.90;7.30;;;21.40;99.90;;;;;;5079023;28;20024;-70
2021/08/12 08:08:38;;;;;;;10.30;6.85;;;21.30;99.90;;;;;;5080806;28;20044;-70
2021/08/12 08:11:04;;;;;;;11.13;6.68;;;21.40;99.90;;;;;;5079379;28;20478;-75
2021/08/12 08:13:31;;;;;;;9.73;7.63;;;21.40;99.90;;;;;;5078646;28;20103;-69
2021/08/12 08:15:57;;;;;;;9.65;6.38;;;21.70;99.90;;;;;;5078719;28;20060;-71
2021/08/12 08:18:24;;;;;;;8.13;6.35;;;21.60;99.90;;;;;;5077582;28;20035;-72
2021/08/12 08:20:50;;;;;;;14.32;6.82;;;22.10;99.90;;;;;;5073531;28;20066;-71
2021/08/12 08:23:16;;;;;;;9.45;5.90;;;22.30;99.90;;;;;;5071677;28;20096;-71
2021/08/12 08:25:42;;;;;;;12.23;6.47;;;22.50;99.90;;;;;;5071109;28;20028;-71
2021/08/12 08:28:08;;;;;;;6.45;5.68;;;22.40;99.90;;;;;;5071900;28;20421;-71
2021/08/12 08:30:35;;;;;;;10.27;5.47;;;22.80;99.90;;;;;;5071758;28;20032;-71
2021/08/12 08:33:01;;;;;;;12.25;5.30;;;23.60;99.90;;;;;;5071332;28;20028;-71
2021/08/12 08:35:28;;;;;;;7.35;5.18;;;24.00;99.90;;;;;;5069712;28;20058;-72
2021/08/12 08:37:55;;;;;;;6.72;5.28;;;24.70;99.90;;;;;;5071306;28;20505;-70
2021/08/12 08:40:21;;;;;;;7.63;5.03;;;24.70;99.90;;;;;;5071106;28;20124;-71
2021/08/12 08:42:47;;;;;;;5.82;4.75;;;24.70;99.90;;;;;;5070213;28;20099;-71
2021/08/12 08:45:18;;;;;;;6.40;4.85;;;25.20;99.90;;;;;;5071073;28;20103;-71
2021/08/12 08:47:45;;;;;;;;;;;26.00;99.90;;;;;;5071952;28;20032;-70
2021/08/12 08:50:15;;;;;;;6.10;4.80;;;26.30;99.90;;;;;;5071172;28;20293;-70
2021/08/12 08:52:41;;;;;;;5.45;4.88;;;26.60;99.90;;;;;;5074128;28;20021;-73
2021/08/12 08:55:07;;;;;;;5.93;5.03;;;26.90;99.90;;;;;;5072989;28;20016;-70
2021/08/12 08:57:33;;;;;;;7.53;4.55;;;26.60;99.90;;;;;;5075716;28;20058;-71
2021/08/12 08:59:59;;;;;;;6.88;5.15;;;27.50;99.90;;;;;;5072895;28;20496;-71
2021/08/12 09:02:25;;;;;;;6.63;4.78;;;28.10;99.90;;;;;;5074106;28;20026;-71
2021/08/12 09:04:50;;;;;;;4.90;4.40;;;28.00;99.90;;;;;;5073587;28;20388;-71
2021/08/12 09:07:17;;;;;;;4.97;4.20;;;28.20;99.90;;;;;;5072939;28;20051;-71
2021/08/12 09:09:43;;;;;;;6.32;4.18;;;28.80;99.90;;;;;;5074417;28;20028;-71
2021/08/12 09:12:09;;;;;;;7.25;4.07;;;29.00;99.90;;;;;;5074055;28;20028;-71
2021/08/12 09:14:38;;;;;;;4.65;4.18;;;29.20;99.90;;;;;;5073131;28;20115;-70
2021/08/12 09:17:25;;;;;;;5.82;4.22;;;29.50;99.90;;;;;;5074435;28;20386;-71
2021/08/12 09:20:10;;;;;;;6.22;3.83;;;30.40;99.90;;;;;;5074905;28;20028;-72
2021/08/12 09:22:52;;;;;;;4.70;3.67;;;30.90;99.90;;;;;;5074106;28;20059;-71
2021/08/12 09:25:44;;;;;;;6.45;3.92;;;30.40;98.40;;;;;;5073857;28;20071;-75
2021/08/12 09:28:14;;;;;;;4.53;4.13;;;29.60;99.90;;;;;;5074061;28;20665;-70
2021/08/12 09:30:40;;;;;;;4.72;3.88;;;30.60;99.80;;;;;;5072635;28;20078;-70
2021/08/12 09:33:06;;;;;;;8.25;4.40;;;30.40;99.60;;;;;;5074051;28;20473;-70
2021/08/12 09:35:32;;;;;;;6.63;3.90;;;30.50;99.20;;;;;;5073130;28;20055;-71
2021/08/12 09:38:09;;;;;;;5.60;4.05;;;29.80;99.90;;;;;;5073768;28;20028;-70
2021/08/12 09:40:35;;;;;;;6.57;3.83;;;30.30;99.90;;;;;;5074054;28;20051;-70
2021/08/12 09:43:03;;;;;;;4.43;3.90;;;31.00;98.70;;;;;;5073614;28;20024;-69
2021/08/12 09:45:30;;;;;;;4.80;3.67;;;31.10;97.70;;;;;;5073153;28;20031;-70
2021/08/12 09:48:07;;;;;;;4.10;3.80;;;30.90;97.50;;;;;;5074627;28;20028;-70
2021/08/12 09:50:35;;;;;;;7.00;4.05;;;31.10;98.40;;;;;;5075060;28;20032;-70
2021/08/12 09:53:02;;;;;;;4.28;3.92;;;30.90;97.40;;;;;;5073400;28;20032;-69
2021/08/12 09:55:28;;;;;;;7.63;4.43;;;30.70;98.70;;;;;;5074288;28;20024;-70
2021/08/12 09:58:14;;;;;;;5.50;4.03;;;32.00;97.60;;;;;;5074333;28;20074;-71
2021/08/12 10:00:44;;;;;;;5.38;3.72;;;32.20;94.10;;;;;;5072997;28;20486;-70
2021/08/12 10:03:30;;;;;;;5.95;4.00;;;32.30;95.90;;;;;;5072396;28;20025;-70
2021/08/12 10:05:59;;;;;;;5.45;4.07;;;33.00;93.20;;;;;;5072730;28;20108;-71
2021/08/12 10:08:36;;;;;;;4.30;3.90;;;33.10;93.20;;;;;;5073236;28;20550;-72
2021/08/12 10:11:25;;;;;;;6.68;4.20;;;33.60;92.70;;;;;;5069730;28;20024;-71
2021/08/12 10:13:54;;;;;;;4.63;4.03;;;34.50;91.90;;;;;;5066111;28;20142;-70
2021/08/12 10:16:20;;;;;;;4.47;4.07;;;34.90;90.20;;;;;;5062857;28;20028;-71
2021/08/12 10:18:48;;;;;;;6.47;3.97;;;34.30;90.40;;;;;;5068038;28;20044;-69
2021/08/12 10:21:16;;;;;;;7.93;4.68;;;35.40;86.50;;;;;;5053132;28;20108;-72
2021/08/12 10:23:45;;;;;;;10.70;4.72;;;35.00;85.30;;;;;;5052794;28;20016;-71
2021/08/12 10:26:11;;;;;;;4.32;4.03;;;35.70;84.20;;;;;;5052636;28;20091;-70
2021/08/12 10:28:41;;;;;;;6.22;4.28;;;36.10;83.80;;;;;;5053249;28;20021;-71
2021/08/12 10:31:07;;;;;;;4.70;4.30;;;36.00;83.70;;;;;;5053611;28;20024;-71
2021/08/12 10:33:35;;;;;;;4.10;3.80;;;35.60;84.10;;;;;;5052713;28;20112;-70
2021/08/12 10:36:02;;;;;;;4.30;3.90;;;35.30;84.10;;;;;;5052038;28;20021;-71
2021/08/12 10:38:28;;;;;;;4.93;4.40;;;35.50;81.60;;;;;;5052327;28;20029;-70
2021/08/12 10:40:56;;;;;;;6.22;4.13;;;35.00;80.80;;;;;;5086195;22;20679;-72
2021/08/12 10:43:29;;;;;;;4.80;4.25;;;34.70;84.20;;;;;;5034417;28;20064;-72
2021/08/12 10:45:59;;;;;;;8.75;4.53;;;33.80;82.50;;;;;;5031723;28;20022;-72
2021/08/12 10:48:26;;;;;;;5.20;4.40;;;33.30;83.50;;;;;;5033135;28;20036;-73
2021/08/12 10:51:11;;;;;;;5.10;4.60;;;32.80;82.70;;;;;;5033949;28;20017;-73
2021/08/12 10:53:41;;;;;;;7.30;4.90;;;32.80;86.90;;;;;;5034140;28;20025;-72
2021/08/12 10:56:09;;;;;;;8.05;4.80;;;32.40;82.90;;;;;;5033412;28;20040;-73
2021/08/12 10:58:37;;;;;;;8.80;4.93;;;31.20;87.00;;;;;;5033143;28;20021;-74
2021/08/12 11:01:07;;;;;;;5.90;5.40;;;31.10;88.80;;;;;;5032565;28;20049;-74
2021/08/12 11:03:33;;;;;;;5.97;5.25;;;32.00;88.30;;;;;;5032474;28;20017;-74
2021/08/12 11:06:15;;;;;;;5.22;4.78;;;32.80;86.30;;;;;;5014186;28;20037;-74
2021/08/12 11:08:51;;;;;;;8.20;5.05;;;32.80;85.00;;;;;;5015333;28;20048;-75
2021/08/12 11:11:23;;;;;;;5.50;5.00;;;33.60;86.10;;;;;;5034229;28;20080;-73
2021/08/12 11:13:50;;;;;;;6.93;5.10;;;33.70;81.60;;;;;;5032804;28;20029;-72
2021/08/12 11:16:17;;;;;;;8.95;5.22;;;33.60;83.70;;;;;;5031593;28;20079;-73
2021/08/12 11:18:53;;;;;;;6.25;5.20;;;33.90;85.20;;;;;;5032195;28;20033;-73
2021/08/12 11:21:33;;;;;;;7.18;5.10;;;34.20;83.00;;;;;;5031943;28;20113;-72
2021/08/12 11:24:12;;;;;;;5.47;4.97;;;33.70;81.40;;;;;;5034998;28;20069;-75
2021/08/12 11:26:40;;;;;;;8.18;5.20;;;33.90;85.30;;;;;;5050966;28;20033;-73
2021/08/12 11:29:22;;;;;;;6.03;5.40;;;34.70;80.80;;;;;;5034142;28;20025;-74
2021/08/12 11:31:47;;;;;;;8.25;4.88;;;34.70;81.30;;;;;;5033927;28;20028;-74
2021/08/12 11:34:23;;;;;;;5.70;5.20;;;34.20;82.00;;;;;;5051985;28;20570;-74
2021/08/12 11:37:24;;;;;;;8.90;6.03;;;33.50;83.20;;;;;;5052112;28;20388;-74
2021/08/12 11:39:58;;;;;;;5.93;5.53;;;33.10;82.80;;;;;;5057312;28;20067;-74
2021/08/12 11:42:43;;;;;;;9.48;5.85;;;33.90;84.20;;;;;;5050891;28;20055;-73
2021/08/12 11:45:12;;;;;;;6.78;5.60;;;34.30;83.90;;;;;;5040650;28;20031;-77
2021/08/12 11:47:40;;;;;;;6.28;5.68;;;33.90;82.60;;;;;;5032166;28;20075;-76
2021/08/12 11:50:08;;;;;;;5.82;5.32;;;34.40;84.80;;;;;;5030168;28;20079;-76
2021/08/12 11:52:37;;;;;;;8.57;5.50;;;35.20;81.50;;;;;;5009957;28;20456;-77
2021/08/12 11:55:10;;;;;;;8.98;5.05;;;35.60;77.00;;;;;;5034521;28;20051;-76
2021/08/12 11:57:49;;;;;;;6.38;4.85;;;35.60;79.20;;;;;;5029667;28;20453;-75
2021/08/12 12:00:22;;;;;;;5.38;4.82;;;35.80;78.80;;;;;;5025795;28;20132;-76
2021/08/12 12:02:49;;;;;;;5.68;5.18;;;35.80;77.10;;;;;;5013088;28;20543;-77
2021/08/12 12:05:15;;;;;;;5.80;5.18;;;35.10;77.60;;;;;;5028353;28;20022;-76
2021/08/12 12:08:14;;;;;;;9.75;5.55;;;35.10;78.50;;;;;;5029109;28;20436;-76
2021/08/12 12:10:43;;;;;;;8.35;5.07;;;36.20;77.10;;;;;;5026625;28;20017;-77
2021/08/12 12:13:10;;;;;;;6.53;5.35;;;36.50;74.00;;;;;;5028433;28;20030;-76
2021/08/12 12:15:42;;;;;;;6.82;4.78;;;36.60;73.80;;;;;;5027986;28;20022;-75
2021/08/12 12:18:09;;;;;;;6.78;5.63;;;36.20;75.00;;;;;;5027865;28;20037;-76
2021/08/12 12:20:37;;;;;;;7.13;5.57;;;36.20;72.40;;;;;;5028911;28;20083;-76
2021/08/12 12:23:11;;;;;;;6.40;5.10;;;35.10;75.10;;;;;;5028810;28;20026;-77
2021/08/12 12:25:44;;;;;;;6.88;4.70;;;34.80;78.50;;;;;;5028627;28;20609;-77
2021/08/12 12:28:14;;;;;;;5.50;4.93;;;35.20;76.00;;;;;;5032344;28;20080;-77
2021/08/12 12:30:40;;;;;;;5.93;5.13;;;35.50;76.60;;;;;;5031309;28;20017;-77
2021/08/12 12:33:26;;;;;;;5.82;5.10;;;35.50;74.90;;;;;;5030068;28;20410;-76
2021/08/12 12:35:53;;;;;;;8.55;5.20;;;35.20;73.30;;;;;;5028530;28;20045;-76
2021/08/12 12:38:23;;;;;;;6.63;5.15;;;34.90;70.80;;;;;;5032015;28;20176;-74
2021/08/12 12:40:50;;;;;;;6.10;5.43;;;34.80;73.60;;;;;;5031938;28;20036;-74
2021/08/12 12:43:16;;;;;;;10.38;4.90;;;34.90;73.70;;;;;;5022550;28;20077;-74